sensor_id;sensor_type;location;lat;lon;timestamp;temperature;humidity
65421;DHT22;52028;50.658;14.004;2022-11-11T00:00:36;3.61;92.35
65421;DHT22;52028;50.658;14.004;2022-11-11T00:03:02;3.64;92.46
65421;DHT22;52028;50.658;14.004;2022-11-11T00:05:28;3.62;92.58
65421;DHT22;52028;50.658;14.004;2022-11-11T00:07:56;3.58;92.65
65421;DHT22;52028;50.658;14.004;2022-11-11T00:10:29;3.69;92.88
65421;DHT22;52028;50.658;14.004;2022-11-11T00:12:59;3.71;93.17
65421;DHT22;52028;50.658;14.004;2022-11-11T00:15:25;3.76;93.26
65421;DHT22;52028;50.658;14.004;2022-11-11T00:17:50;3.81;92.81
65421;DHT22;52028;50.658;14.004;2022-11-11T00:20:35;3.89;92.81
65421;DHT22;52028;50.658;14.004;2022-11-11T00:23:21;3.93;92.74
65421;DHT22;52028;50.658;14.004;2022-11-11T00:26:05;3.79;92.84
65421;DHT22;52028;50.658;14.004;2022-11-11T00:28:31;3.54;92.62
65421;DHT22;52028;50.658;14.004;2022-11-11T00:31:03;3.34;92.71
65421;DHT22;52028;50.658;14.004;2022-11-11T00:33:29;3.31;92.89
65421;DHT22;52028;50.658;14.004;2022-11-11T00:35:54;3.23;93.51
65421;DHT22;52028;50.658;14.004;2022-11-11T00:38:20;3.37;93.81
65421;DHT22;52028;50.658;14.004;2022-11-11T00:41:04;3.40;94.06
65421;DHT22;52028;50.658;14.004;2022-11-11T00:43:29;3.58;94.24
65421;DHT22;52028;50.658;14.004;2022-11-11T00:45:55;3.74;94.35
65421;DHT22;52028;50.658;14.004;2022-11-11T00:48:40;3.83;94.55
65421;DHT22;52028;50.658;14.004;2022-11-11T00:51:25;3.99;94.72
65421;DHT22;52028;50.658;14.004;2022-11-11T00:53:50;4.06;94.72
65421;DHT22;52028;50.658;14.004;2022-11-11T00:56:15;4.00;94.75
65421;DHT22;52028;50.658;14.004;2022-11-11T00:58:41;4.06;94.75
65421;DHT22;52028;50.658;14.004;2022-11-11T01:01:06;4.06;94.58
65421;DHT22;52028;50.658;14.004;2022-11-11T01:03:32;4.10;94.65
65421;DHT22;52028;50.658;14.004;2022-11-11T01:06:01;4.06;94.62
65421;DHT22;52028;50.658;14.004;2022-11-11T01:08:27;4.03;94.60
65421;DHT22;52028;50.658;14.004;2022-11-11T01:10:52;4.07;94.57
65421;DHT22;52028;50.658;14.004;2022-11-11T01:15:51;4.20;94.35
65421;DHT22;52028;50.658;14.004;2022-11-11T01:18:22;4.17;94.02
65421;DHT22;52028;50.658;14.004;2022-11-11T01:21:00;4.14;93.85
65421;DHT22;52028;50.658;14.004;2022-11-11T01:23:26;4.25;93.70
65421;DHT22;52028;50.658;14.004;2022-11-11T01:25:52;4.33;93.33
65421;DHT22;52028;50.658;14.004;2022-11-11T01:28:17;4.40;93.15
65421;DHT22;52028;50.658;14.004;2022-11-11T01:30:43;4.41;93.07
65421;DHT22;52028;50.658;14.004;2022-11-11T01:33:10;4.38;93.14
65421;DHT22;52028;50.658;14.004;2022-11-11T01:35:39;4.42;93.25
65421;DHT22;52028;50.658;14.004;2022-11-11T01:38:05;4.40;93.32
65421;DHT22;52028;50.658;14.004;2022-11-11T01:40:39;4.36;93.45
65421;DHT22;52028;50.658;14.004;2022-11-11T01:45:59;4.16;94.13
65421;DHT22;52028;50.658;14.004;2022-11-11T01:48:40;4.24;94.27
65421;DHT22;52028;50.658;14.004;2022-11-11T01:54:15;4.27;94.42
65421;DHT22;52028;50.658;14.004;2022-11-11T01:56:43;4.22;94.46
65421;DHT22;52028;50.658;14.004;2022-11-11T01:59:11;4.28;94.32
65421;DHT22;52028;50.658;14.004;2022-11-11T02:01:39;4.38;94.12
65421;DHT22;52028;50.658;14.004;2022-11-11T02:04:05;4.40;93.95
65421;DHT22;52028;50.658;14.004;2022-11-11T02:06:51;4.36;93.81
65421;DHT22;52028;50.658;14.004;2022-11-11T02:09:19;4.31;93.60
65421;DHT22;52028;50.658;14.004;2022-11-11T02:11:45;4.28;93.39
65421;DHT22;52028;50.658;14.004;2022-11-11T02:14:29;4.30;93.40
65421;DHT22;52028;50.658;14.004;2022-11-11T02:17:02;4.24;93.38
65421;DHT22;52028;50.658;14.004;2022-11-11T02:19:52;4.20;93.29
65421;DHT22;52028;50.658;14.004;2022-11-11T02:22:45;4.18;93.30
65421;DHT22;52028;50.658;14.004;2022-11-11T02:25:16;4.27;93.27
65421;DHT22;52028;50.658;14.004;2022-11-11T02:27:45;4.25;93.31
65421;DHT22;52028;50.658;14.004;2022-11-11T02:30:11;4.07;93.29
65421;DHT22;52028;50.658;14.004;2022-11-11T02:32:50;4.03;93.27
65421;DHT22;52028;50.658;14.004;2022-11-11T02:35:21;4.22;93.15
65421;DHT22;52028;50.658;14.004;2022-11-11T02:37:49;4.38;92.69
65421;DHT22;52028;50.658;14.004;2022-11-11T02:40:39;4.40;92.60
65421;DHT22;52028;50.658;14.004;2022-11-11T02:43:23;4.34;92.49
65421;DHT22;52028;50.658;14.004;2022-11-11T02:45:48;4.41;92.51
65421;DHT22;52028;50.658;14.004;2022-11-11T02:48:14;4.36;92.54
65421;DHT22;52028;50.658;14.004;2022-11-11T02:50:40;4.11;92.88
65421;DHT22;52028;50.658;14.004;2022-11-11T02:53:05;4.17;93.20
65421;DHT22;52028;50.658;14.004;2022-11-11T02:55:30;4.37;93.19
65421;DHT22;52028;50.658;14.004;2022-11-11T02:57:56;4.52;93.09
65421;DHT22;52028;50.658;14.004;2022-11-11T03:00:21;4.58;93.01
65421;DHT22;52028;50.658;14.004;2022-11-11T03:02:46;4.72;92.84
65421;DHT22;52028;50.658;14.004;2022-11-11T03:05:12;4.73;92.65
65421;DHT22;52028;50.658;14.004;2022-11-11T03:07:37;4.41;92.81
65421;DHT22;52028;50.658;14.004;2022-11-11T03:10:02;4.16;93.30
65421;DHT22;52028;50.658;14.004;2022-11-11T03:12:28;4.22;93.64
65421;DHT22;52028;50.658;14.004;2022-11-11T03:14:53;4.34;93.62
65421;DHT22;52028;50.658;14.004;2022-11-11T03:17:19;4.37;93.61
65421;DHT22;52028;50.658;14.004;2022-11-11T03:20:05;4.51;93.44
65421;DHT22;52028;50.658;14.004;2022-11-11T03:25:31;4.20;93.81
65421;DHT22;52028;50.658;14.004;2022-11-11T03:28:04;3.99;94.03
65421;DHT22;52028;50.658;14.004;2022-11-11T03:30:29;3.90;94.39
65421;DHT22;52028;50.658;14.004;2022-11-11T03:32:54;3.93;94.73
65421;DHT22;52028;50.658;14.004;2022-11-11T03:35:20;4.04;94.72
65421;DHT22;52028;50.658;14.004;2022-11-11T03:37:45;4.07;94.67
65421;DHT22;52028;50.658;14.004;2022-11-11T03:40:29;4.27;94.56
65421;DHT22;52028;50.658;14.004;2022-11-11T03:42:54;4.11;94.55
65421;DHT22;52028;50.658;14.004;2022-11-11T03:45:20;4.11;94.59
65421;DHT22;52028;50.658;14.004;2022-11-11T03:47:45;4.31;94.33
65421;DHT22;52028;50.658;14.004;2022-11-11T03:50:11;4.41;94.07
65421;DHT22;52028;50.658;14.004;2022-11-11T03:52:40;4.41;93.77
65421;DHT22;52028;50.658;14.004;2022-11-11T03:55:06;4.44;93.25
65421;DHT22;52028;50.658;14.004;2022-11-11T03:57:31;4.54;92.92
65421;DHT22;52028;50.658;14.004;2022-11-11T03:59:57;4.52;92.48
65421;DHT22;52028;50.658;14.004;2022-11-11T04:02:22;4.51;92.39
65421;DHT22;52028;50.658;14.004;2022-11-11T04:05:07;4.59;92.41
65421;DHT22;52028;50.658;14.004;2022-11-11T04:07:50;4.62;92.36
65421;DHT22;52028;50.658;14.004;2022-11-11T04:10:35;4.64;92.25
65421;DHT22;52028;50.658;14.004;2022-11-11T04:13:00;4.64;92.23
65421;DHT22;52028;50.658;14.004;2022-11-11T04:15:44;4.65;92.16
65421;DHT22;52028;50.658;14.004;2022-11-11T04:18:28;4.66;92.27
65421;DHT22;52028;50.658;14.004;2022-11-11T04:21:12;4.73;92.20
65421;DHT22;52028;50.658;14.004;2022-11-11T04:23:56;4.72;92.28
65421;DHT22;52028;50.658;14.004;2022-11-11T04:26:21;4.71;92.04
65421;DHT22;52028;50.658;14.004;2022-11-11T04:28:47;4.59;92.00
65421;DHT22;52028;50.658;14.004;2022-11-11T04:31:31;4.59;92.11
65421;DHT22;52028;50.658;14.004;2022-11-11T04:33:56;4.56;92.11
65421;DHT22;52028;50.658;14.004;2022-11-11T04:36:21;4.62;92.16
65421;DHT22;52028;50.658;14.004;2022-11-11T04:38:47;4.64;91.91
65421;DHT22;52028;50.658;14.004;2022-11-11T04:41:31;4.65;91.81
65421;DHT22;52028;50.658;14.004;2022-11-11T04:43:56;4.58;92.04
65421;DHT22;52028;50.658;14.004;2022-11-11T04:46:59;4.58;92.14
65421;DHT22;52028;50.658;14.004;2022-11-11T04:49:25;4.64;92.02
65421;DHT22;52028;50.658;14.004;2022-11-11T04:51:50;4.64;92.10
65421;DHT22;52028;50.658;14.004;2022-11-11T04:54:34;4.69;91.95
65421;DHT22;52028;50.658;14.004;2022-11-11T04:57:19;4.73;91.75
65421;DHT22;52028;50.658;14.004;2022-11-11T04:59:44;4.77;91.56
65421;DHT22;52028;50.658;14.004;2022-11-11T05:02:11;4.73;91.64
65421;DHT22;52028;50.658;14.004;2022-11-11T05:04:55;4.77;91.78
65421;DHT22;52028;50.658;14.004;2022-11-11T05:07:20;4.75;91.83
65421;DHT22;52028;50.658;14.004;2022-11-11T05:10:04;4.69;91.91
65421;DHT22;52028;50.658;14.004;2022-11-11T05:12:30;4.71;91.98
65421;DHT22;52028;50.658;14.004;2022-11-11T05:14:55;4.65;92.28
65421;DHT22;52028;50.658;14.004;2022-11-11T05:17:39;4.69;92.15
65421;DHT22;52028;50.658;14.004;2022-11-11T05:20:40;4.76;91.98
65421;DHT22;52028;50.658;14.004;2022-11-11T05:23:24;4.79;92.06
65421;DHT22;52028;50.658;14.004;2022-11-11T05:26:12;4.73;91.98
65421;DHT22;52028;50.658;14.004;2022-11-11T05:28:37;4.66;91.94
65421;DHT22;52028;50.658;14.004;2022-11-11T05:31:03;4.65;92.04
65421;DHT22;52028;50.658;14.004;2022-11-11T05:33:28;4.64;92.16
65421;DHT22;52028;50.658;14.004;2022-11-11T05:35:53;4.58;92.08
65421;DHT22;52028;50.658;14.004;2022-11-11T05:38:19;4.59;91.98
65421;DHT22;52028;50.658;14.004;2022-11-11T05:40:44;4.71;91.99
65421;DHT22;52028;50.658;14.004;2022-11-11T05:43:09;4.72;91.99
65421;DHT22;52028;50.658;14.004;2022-11-11T05:45:34;4.62;91.78
65421;DHT22;52028;50.658;14.004;2022-11-11T05:48:01;4.69;91.94
65421;DHT22;52028;50.658;14.004;2022-11-11T05:50:26;4.75;91.77
65421;DHT22;52028;50.658;14.004;2022-11-11T05:52:52;4.76;91.81
65421;DHT22;52028;50.658;14.004;2022-11-11T05:55:17;4.75;91.67
65421;DHT22;52028;50.658;14.004;2022-11-11T05:57:43;4.76;91.27
65421;DHT22;52028;50.658;14.004;2022-11-11T06:00:09;4.72;91.21
65421;DHT22;52028;50.658;14.004;2022-11-11T06:02:35;4.76;91.23
65421;DHT22;52028;50.658;14.004;2022-11-11T06:05:00;4.76;91.10
65421;DHT22;52028;50.658;14.004;2022-11-11T06:07:25;4.68;91.14
65421;DHT22;52028;50.658;14.004;2022-11-11T06:09:50;4.69;91.13
65421;DHT22;52028;50.658;14.004;2022-11-11T06:12:16;4.65;91.07
65421;DHT22;52028;50.658;14.004;2022-11-11T06:14:41;4.61;91.20
65421;DHT22;52028;50.658;14.004;2022-11-11T06:17:06;4.65;91.12
65421;DHT22;52028;50.658;14.004;2022-11-11T06:19:32;4.51;91.45
65421;DHT22;52028;50.658;14.004;2022-11-11T06:21:57;4.61;91.96
65421;DHT22;52028;50.658;14.004;2022-11-11T06:24:23;4.68;91.85
65421;DHT22;52028;50.658;14.004;2022-11-11T06:26:49;4.72;91.62
65421;DHT22;52028;50.658;14.004;2022-11-11T06:29:14;4.77;91.55
65421;DHT22;52028;50.658;14.004;2022-11-11T06:31:39;4.73;91.45
65421;DHT22;52028;50.658;14.004;2022-11-11T06:34:04;4.69;91.78
65421;DHT22;52028;50.658;14.004;2022-11-11T06:36:30;4.69;91.69
65421;DHT22;52028;50.658;14.004;2022-11-11T06:38:55;4.75;91.59
65421;DHT22;52028;50.658;14.004;2022-11-11T06:41:20;4.72;91.55
65421;DHT22;52028;50.658;14.004;2022-11-11T06:43:48;4.64;91.72
65421;DHT22;52028;50.658;14.004;2022-11-11T06:46:22;4.56;91.44
65421;DHT22;52028;50.658;14.004;2022-11-11T06:48:47;4.73;91.70
65421;DHT22;52028;50.658;14.004;2022-11-11T06:51:13;4.75;91.64
65421;DHT22;52028;50.658;14.004;2022-11-11T06:53:39;4.73;91.92
65421;DHT22;52028;50.658;14.004;2022-11-11T06:56:05;4.76;92.12
65421;DHT22;52028;50.658;14.004;2022-11-11T06:58:32;4.93;91.77
65421;DHT22;52028;50.658;14.004;2022-11-11T07:00:57;4.94;91.39
65421;DHT22;52028;50.658;14.004;2022-11-11T07:03:22;4.93;91.02
65421;DHT22;52028;50.658;14.004;2022-11-11T07:05:48;4.87;90.71
65421;DHT22;52028;50.658;14.004;2022-11-11T07:08:16;4.84;90.87
65421;DHT22;52028;50.658;14.004;2022-11-11T07:10:47;4.86;90.82
65421;DHT22;52028;50.658;14.004;2022-11-11T07:13:14;5.00;90.73
65421;DHT22;52028;50.658;14.004;2022-11-11T07:15:41;4.76;90.81
65421;DHT22;52028;50.658;14.004;2022-11-11T07:18:07;4.68;91.45
65421;DHT22;52028;50.658;14.004;2022-11-11T07:20:32;4.84;91.48
65421;DHT22;52028;50.658;14.004;2022-11-11T07:22:58;4.89;91.32
65421;DHT22;52028;50.658;14.004;2022-11-11T07:25:23;4.90;90.79
65421;DHT22;52028;50.658;14.004;2022-11-11T07:27:48;4.89;90.72
65421;DHT22;52028;50.658;14.004;2022-11-11T07:30:14;4.86;90.62
65421;DHT22;52028;50.658;14.004;2022-11-11T07:32:48;4.90;90.59
65421;DHT22;52028;50.658;14.004;2022-11-11T07:35:14;4.87;90.40
65421;DHT22;52028;50.658;14.004;2022-11-11T07:37:40;5.00;90.40
65421;DHT22;52028;50.658;14.004;2022-11-11T07:40:06;5.09;90.28
65421;DHT22;52028;50.658;14.004;2022-11-11T07:42:35;4.77;90.77
65421;DHT22;52028;50.658;14.004;2022-11-11T07:45:00;4.64;91.37
65421;DHT22;52028;50.658;14.004;2022-11-11T07:47:26;4.72;91.42
65421;DHT22;52028;50.658;14.004;2022-11-11T07:49:51;4.69;91.25
65421;DHT22;52028;50.658;14.004;2022-11-11T07:52:16;4.58;91.38
65421;DHT22;52028;50.658;14.004;2022-11-11T07:54:42;4.48;91.85
65421;DHT22;52028;50.658;14.004;2022-11-11T07:57:07;4.47;92.23
65421;DHT22;52028;50.658;14.004;2022-11-11T07:59:32;4.75;92.22
65421;DHT22;52028;50.658;14.004;2022-11-11T08:01:58;4.99;91.63
65421;DHT22;52028;50.658;14.004;2022-11-11T08:04:23;4.90;91.07
65421;DHT22;52028;50.658;14.004;2022-11-11T08:06:48;4.84;91.05
65421;DHT22;52028;50.658;14.004;2022-11-11T08:09:14;4.80;91.24
65421;DHT22;52028;50.658;14.004;2022-11-11T08:11:39;4.77;91.62
65421;DHT22;52028;50.658;14.004;2022-11-11T08:14:23;4.68;92.43
65421;DHT22;52028;50.658;14.004;2022-11-11T08:16:50;4.86;91.99
65421;DHT22;52028;50.658;14.004;2022-11-11T08:19:16;5.09;91.86
65421;DHT22;52028;50.658;14.004;2022-11-11T08:21:42;5.34;91.40
65421;DHT22;52028;50.658;14.004;2022-11-11T08:24:07;5.38;90.95
65421;DHT22;52028;50.658;14.004;2022-11-11T08:26:33;5.52;90.58
65421;DHT22;52028;50.658;14.004;2022-11-11T08:28:58;5.69;89.74
65421;DHT22;52028;50.658;14.004;2022-11-11T08:31:23;5.80;89.03
65421;DHT22;52028;50.658;14.004;2022-11-11T08:33:49;5.67;88.77
65421;DHT22;52028;50.658;14.004;2022-11-11T08:36:14;5.20;89.69
65421;DHT22;52028;50.658;14.004;2022-11-11T08:38:39;5.38;90.37
65421;DHT22;52028;50.658;14.004;2022-11-11T08:41:05;5.51;89.90
65421;DHT22;52028;50.658;14.004;2022-11-11T08:43:31;5.30;90.11
65421;DHT22;52028;50.658;14.004;2022-11-11T08:45:58;5.14;90.51
65421;DHT22;52028;50.658;14.004;2022-11-11T08:48:24;5.07;90.87
65421;DHT22;52028;50.658;14.004;2022-11-11T08:50:51;5.21;91.30
65421;DHT22;52028;50.658;14.004;2022-11-11T08:53:18;5.55;90.59
65421;DHT22;52028;50.658;14.004;2022-11-11T08:55:43;5.49;90.49
65421;DHT22;52028;50.658;14.004;2022-11-11T08:58:09;5.73;89.99
65421;DHT22;52028;50.658;14.004;2022-11-11T09:00:35;6.04;88.89
65421;DHT22;52028;50.658;14.004;2022-11-11T09:03:09;6.21;88.11
65421;DHT22;52028;50.658;14.004;2022-11-11T09:05:37;6.52;87.69
65421;DHT22;52028;50.658;14.004;2022-11-11T09:08:04;6.65;86.86
65421;DHT22;52028;50.658;14.004;2022-11-11T09:10:31;6.42;87.04
65421;DHT22;52028;50.658;14.004;2022-11-11T09:12:57;6.25;87.06
65421;DHT22;52028;50.658;14.004;2022-11-11T09:15:23;5.94;87.90
65421;DHT22;52028;50.658;14.004;2022-11-11T09:17:49;5.96;88.04
65421;DHT22;52028;50.658;14.004;2022-11-11T09:20:15;5.76;88.99
65421;DHT22;52028;50.658;14.004;2022-11-11T09:22:45;5.69;89.50
65421;DHT22;52028;50.658;14.004;2022-11-11T09:25:10;5.52;89.80
65421;DHT22;52028;50.658;14.004;2022-11-11T09:27:36;5.83;89.59
65421;DHT22;52028;50.658;14.004;2022-11-11T09:30:02;6.17;89.12
65421;DHT22;52028;50.658;14.004;2022-11-11T09:32:28;6.39;87.97
65421;DHT22;52028;50.658;14.004;2022-11-11T09:34:54;6.41;88.38
65421;DHT22;52028;50.658;14.004;2022-11-11T09:37:20;6.70;87.42
65421;DHT22;52028;50.658;14.004;2022-11-11T09:39:48;6.79;86.47
65421;DHT22;52028;50.658;14.004;2022-11-11T09:42:47;6.75;86.89
65421;DHT22;52028;50.658;14.004;2022-11-11T09:50:53;6.94;86.55
65421;DHT22;52028;50.658;14.004;2022-11-11T09:53:25;7.07;86.21
65421;DHT22;52028;50.658;14.004;2022-11-11T09:55:57;7.04;86.11
65421;DHT22;52028;50.658;14.004;2022-11-11T09:58:34;7.08;86.49
65421;DHT22;52028;50.658;14.004;2022-11-11T10:01:08;7.25;85.93
65421;DHT22;52028;50.658;14.004;2022-11-11T10:03:39;7.43;85.23
65421;DHT22;52028;50.658;14.004;2022-11-11T10:06:27;7.53;84.87
65421;DHT22;52028;50.658;14.004;2022-11-11T10:08:59;7.65;84.61
65421;DHT22;52028;50.658;14.004;2022-11-11T10:14:03;7.53;84.73
65421;DHT22;52028;50.658;14.004;2022-11-11T10:21:47;7.46;85.71
65421;DHT22;52028;50.658;14.004;2022-11-11T10:24:17;7.41;85.73
65421;DHT22;52028;50.658;14.004;2022-11-11T10:26:47;7.18;86.66
65421;DHT22;52028;50.658;14.004;2022-11-11T10:29:20;7.41;86.32
65421;DHT22;52028;50.658;14.004;2022-11-11T10:32:11;7.59;85.37
65421;DHT22;52028;50.658;14.004;2022-11-11T10:34:40;7.36;86.08
65421;DHT22;52028;50.658;14.004;2022-11-11T10:37:17;7.11;86.91
65421;DHT22;52028;50.658;14.004;2022-11-11T10:42:24;7.49;86.74
65421;DHT22;52028;50.658;14.004;2022-11-11T10:44:50;7.59;86.74
65421;DHT22;52028;50.658;14.004;2022-11-11T10:47:41;7.81;85.83
65421;DHT22;52028;50.658;14.004;2022-11-11T10:55:34;7.56;85.90
65421;DHT22;52028;50.658;14.004;2022-11-11T11:00:47;8.33;84.22
65421;DHT22;52028;50.658;14.004;2022-11-11T11:05:52;8.21;83.57
65421;DHT22;52028;50.658;14.004;2022-11-11T11:08:26;8.09;84.44
65421;DHT22;52028;50.658;14.004;2022-11-11T11:10:57;7.98;84.98
65421;DHT22;52028;50.658;14.004;2022-11-11T11:13:29;8.01;85.28
65421;DHT22;52028;50.658;14.004;2022-11-11T11:16:03;8.11;84.95
65421;DHT22;52028;50.658;14.004;2022-11-11T11:18:31;8.26;84.49
65421;DHT22;52028;50.658;14.004;2022-11-11T11:21:01;8.64;83.72
65421;DHT22;52028;50.658;14.004;2022-11-11T11:23:41;8.94;82.60
65421;DHT22;52028;50.658;14.004;2022-11-11T11:26:09;9.21;82.98
65421;DHT22;52028;50.658;14.004;2022-11-11T11:28:58;9.16;82.31
65421;DHT22;52028;50.658;14.004;2022-11-11T11:31:38;9.63;80.92
65421;DHT22;52028;50.658;14.004;2022-11-11T11:34:03;9.77;79.87
65421;DHT22;52028;50.658;14.004;2022-11-11T11:36:29;9.87;79.20
65421;DHT22;52028;50.658;14.004;2022-11-11T11:38:54;10.05;79.28
65421;DHT22;52028;50.658;14.004;2022-11-11T11:41:41;10.39;78.56
65421;DHT22;52028;50.658;14.004;2022-11-11T11:46:50;10.54;77.75
65421;DHT22;52028;50.658;14.004;2022-11-11T11:49:42;10.77;77.28
65421;DHT22;52028;50.658;14.004;2022-11-11T11:52:20;10.65;76.48
65421;DHT22;52028;50.658;14.004;2022-11-11T12:00:53;10.49;78.04
65421;DHT22;52028;50.658;14.004;2022-11-11T12:03:47;10.91;76.83
65421;DHT22;52028;50.658;14.004;2022-11-11T12:06:29;11.11;75.99
65421;DHT22;52028;50.658;14.004;2022-11-11T12:12:22;11.26;74.86
65421;DHT22;52028;50.658;14.004;2022-11-11T12:20:22;11.11;75.70
65421;DHT22;52028;50.658;14.004;2022-11-11T12:23:02;11.75;74.04
65421;DHT22;52028;50.658;14.004;2022-11-11T12:28:46;12.34;71.62
65421;DHT22;52028;50.658;14.004;2022-11-11T12:36:51;11.68;73.11
65421;DHT22;52028;50.658;14.004;2022-11-11T12:55:17;14.38;64.27
65421;DHT22;52028;50.658;14.004;2022-11-11T12:58:36;13.30;68.07
65421;DHT22;52028;50.658;14.004;2022-11-11T13:06:40;12.50;70.61
65421;DHT22;52028;50.658;14.004;2022-11-11T13:12:04;12.63;70.68
65421;DHT22;52028;50.658;14.004;2022-11-11T13:17:11;12.13;72.13
65421;DHT22;52028;50.658;14.004;2022-11-11T13:19:42;11.66;73.68
65421;DHT22;52028;50.658;14.004;2022-11-11T13:22:21;11.60;74.02
65421;DHT22;52028;50.658;14.004;2022-11-11T13:24:52;11.52;74.50
65421;DHT22;52028;50.658;14.004;2022-11-11T13:27:38;11.42;75.10
65421;DHT22;52028;50.658;14.004;2022-11-11T13:33:04;11.49;74.98
65421;DHT22;52028;50.658;14.004;2022-11-11T13:35:36;11.52;75.05
65421;DHT22;52028;50.658;14.004;2022-11-11T13:38:04;11.42;75.02
65421;DHT22;52028;50.658;14.004;2022-11-11T13:40:43;11.14;75.47
65421;DHT22;52028;50.658;14.004;2022-11-11T13:43:43;11.16;75.99
65421;DHT22;52028;50.658;14.004;2022-11-11T13:46:28;10.81;76.66
65421;DHT22;52028;50.658;14.004;2022-11-11T13:48:54;10.59;77.42
65421;DHT22;52028;50.658;14.004;2022-11-11T13:51:33;10.68;77.36
65421;DHT22;52028;50.658;14.004;2022-11-11T13:54:00;10.53;77.95
65421;DHT22;52028;50.658;14.004;2022-11-11T13:58:57;10.54;78.35
65421;DHT22;52028;50.658;14.004;2022-11-11T14:01:23;10.42;79.06
65421;DHT22;52028;50.658;14.004;2022-11-11T14:13:49;10.64;78.41
65421;DHT22;52028;50.658;14.004;2022-11-11T14:21:48;10.70;78.50
65421;DHT22;52028;50.658;14.004;2022-11-11T14:24:37;10.59;79.05
65421;DHT22;52028;50.658;14.004;2022-11-11T14:29:47;10.59;78.89
65421;DHT22;52028;50.658;14.004;2022-11-11T14:37:41;10.53;79.53
65421;DHT22;52028;50.658;14.004;2022-11-11T14:40:01;10.54;79.27
65421;DHT22;52028;50.658;14.004;2022-11-11T14:44:58;10.42;79.64
65421;DHT22;52028;50.658;14.004;2022-11-11T14:47:36;10.26;80.22
65421;DHT22;52028;50.658;14.004;2022-11-11T14:50:06;10.02;81.56
65421;DHT22;52028;50.658;14.004;2022-11-11T14:52:48;9.84;82.81
65421;DHT22;52028;50.658;14.004;2022-11-11T14:55:29;9.57;83.77
65421;DHT22;52028;50.658;14.004;2022-11-11T15:01:00;9.30;85.22
65421;DHT22;52028;50.658;14.004;2022-11-11T15:06:05;9.12;85.90
65421;DHT22;52028;50.658;14.004;2022-11-11T15:16:29;8.98;86.92
65421;DHT22;52028;50.658;14.004;2022-11-11T15:21:45;8.80;87.29
65421;DHT22;52028;50.658;14.004;2022-11-11T15:27:21;8.81;87.31
65421;DHT22;52028;50.658;14.004;2022-11-11T15:30:00;8.80;87.31
65421;DHT22;52028;50.658;14.004;2022-11-11T15:37:53;8.87;87.20
65421;DHT22;52028;50.658;14.004;2022-11-11T15:40:24;8.91;87.26
65421;DHT22;52028;50.658;14.004;2022-11-11T15:42:50;8.85;87.17
65421;DHT22;52028;50.658;14.004;2022-11-11T15:45:20;8.77;87.17
65421;DHT22;52028;50.658;14.004;2022-11-11T15:47:48;8.73;87.55
65421;DHT22;52028;50.658;14.004;2022-11-11T15:52:55;8.84;87.27
65421;DHT22;52028;50.658;14.004;2022-11-11T15:55:22;8.91;87.00
65421;DHT22;52028;50.658;14.004;2022-11-11T15:57:47;8.88;86.90
65421;DHT22;52028;50.658;14.004;2022-11-11T16:02:47;8.84;86.85
65421;DHT22;52028;50.658;14.004;2022-11-11T16:05:17;8.59;87.31
65421;DHT22;52028;50.658;14.004;2022-11-11T16:07:46;8.40;87.74
65421;DHT22;52028;50.658;14.004;2022-11-11T16:10:29;8.16;88.26
65421;DHT22;52028;50.658;14.004;2022-11-11T16:13:01;8.24;88.15
65421;DHT22;52028;50.658;14.004;2022-11-11T16:18:14;8.21;88.14
65421;DHT22;52028;50.658;14.004;2022-11-11T16:23:29;8.20;88.31
65421;DHT22;52028;50.658;14.004;2022-11-11T16:25:57;8.11;88.47
65421;DHT22;52028;50.658;14.004;2022-11-11T16:28:23;7.99;88.90
65421;DHT22;52028;50.658;14.004;2022-11-11T16:30:49;7.86;89.21
65421;DHT22;52028;50.658;14.004;2022-11-11T16:35:52;7.78;89.20
65421;DHT22;52028;50.658;14.004;2022-11-11T16:38:31;7.71;89.11
65421;DHT22;52028;50.658;14.004;2022-11-11T16:40:57;7.70;89.00
65421;DHT22;52028;50.658;14.004;2022-11-11T16:43:25;7.67;88.98
65421;DHT22;52028;50.658;14.004;2022-11-11T16:51:12;7.46;89.45
65421;DHT22;52028;50.658;14.004;2022-11-11T16:53:46;7.41;89.55
65421;DHT22;52028;50.658;14.004;2022-11-11T16:56:26;7.33;89.52
65421;DHT22;52028;50.658;14.004;2022-11-11T16:58:55;7.26;89.61
65421;DHT22;52028;50.658;14.004;2022-11-11T17:01:21;7.18;89.76
65421;DHT22;52028;50.658;14.004;2022-11-11T17:03:53;7.09;89.88
65421;DHT22;52028;50.658;14.004;2022-11-11T17:06:18;7.14;89.98
65421;DHT22;52028;50.658;14.004;2022-11-11T17:08:44;7.04;89.80
65421;DHT22;52028;50.658;14.004;2022-11-11T17:14:03;7.01;89.98
65421;DHT22;52028;50.658;14.004;2022-11-11T17:16:29;6.97;90.11
65421;DHT22;52028;50.658;14.004;2022-11-11T17:18:54;6.94;90.35
65421;DHT22;52028;50.658;14.004;2022-11-11T17:21:19;6.84;90.56
65421;DHT22;52028;50.658;14.004;2022-11-11T17:23:45;6.66;90.81
65421;DHT22;52028;50.658;14.004;2022-11-11T17:26:10;6.48;90.99
65421;DHT22;52028;50.658;14.004;2022-11-11T17:28:36;6.52;90.92
65421;DHT22;52028;50.658;14.004;2022-11-11T17:31:08;6.50;90.82
65421;DHT22;52028;50.658;14.004;2022-11-11T17:33:34;6.54;90.71
65421;DHT22;52028;50.658;14.004;2022-11-11T17:36:00;6.56;90.59
65421;DHT22;52028;50.658;14.004;2022-11-11T17:38:26;6.56;90.48
65421;DHT22;52028;50.658;14.004;2022-11-11T17:40:51;6.54;90.55
65421;DHT22;52028;50.658;14.004;2022-11-11T17:43:17;6.52;90.71
65421;DHT22;52028;50.658;14.004;2022-11-11T17:45:42;6.56;90.85
65421;DHT22;52028;50.658;14.004;2022-11-11T17:48:08;6.46;91.04
65421;DHT22;52028;50.658;14.004;2022-11-11T17:50:38;6.48;91.23
65421;DHT22;52028;50.658;14.004;2022-11-11T17:53:05;6.39;91.39
65421;DHT22;52028;50.658;14.004;2022-11-11T17:55:31;6.38;91.61
65421;DHT22;52028;50.658;14.004;2022-11-11T17:57:58;6.38;91.60
65421;DHT22;52028;50.658;14.004;2022-11-11T18:00:24;6.38;91.64
65421;DHT22;52028;50.658;14.004;2022-11-11T18:02:50;6.38;91.55
65421;DHT22;52028;50.658;14.004;2022-11-11T18:05:15;6.39;91.42
65421;DHT22;52028;50.658;14.004;2022-11-11T18:07:40;6.26;91.63
65421;DHT22;52028;50.658;14.004;2022-11-11T18:10:07;6.29;91.43
65421;DHT22;52028;50.658;14.004;2022-11-11T18:12:32;6.29;91.46
65421;DHT22;52028;50.658;14.004;2022-11-11T18:14:58;6.31;91.49
65421;DHT22;52028;50.658;14.004;2022-11-11T18:17:23;6.31;91.49
65421;DHT22;52028;50.658;14.004;2022-11-11T18:19:48;6.35;91.37
65421;DHT22;52028;50.658;14.004;2022-11-11T18:22:14;6.29;91.41
65421;DHT22;52028;50.658;14.004;2022-11-11T18:24:39;6.17;91.59
65421;DHT22;52028;50.658;14.004;2022-11-11T18:27:04;6.00;91.90
65421;DHT22;52028;50.658;14.004;2022-11-11T18:29:30;6.01;92.01
65421;DHT22;52028;50.658;14.004;2022-11-11T18:31:56;6.06;91.89
65421;DHT22;52028;50.658;14.004;2022-11-11T18:34:21;6.07;91.83
65421;DHT22;52028;50.658;14.004;2022-11-11T18:36:47;6.07;91.62